sensor_id;sensor_type;location;lat;lon;timestamp;P1;durP1;ratioP1;P2;durP2;ratioP2
17201;SDS011;8717;53.588;10.176;2023-10-08T00:02:04;5.70;;;2.03;;
17201;SDS011;8717;53.588;10.176;2023-10-08T00:04:31;7.80;;;2.80;;
17201;SDS011;8717;53.588;10.176;2023-10-08T00:07:03;7.27;;;2.43;;
17201;SDS011;8717;53.588;10.176;2023-10-08T00:09:32;5.17;;;2.40;;
17201;SDS011;8717;53.588;10.176;2023-10-08T00:12:02;8.03;;;2.23;;
17201;SDS011;8717;53.588;10.176;2023-10-08T00:14:29;11.07;;;3.37;;
17201;SDS011;8717;53.588;10.176;2023-10-08T00:16:57;8.93;;;2.50;;
17201;SDS011;8717;53.588;10.176;2023-10-08T00:19:25;11.73;;;2.60;;
17201;SDS011;8717;53.588;10.176;2023-10-08T00:21:58;9.17;;;2.93;;
17201;SDS011;8717;53.588;10.176;2023-10-08T00:24:31;10.00;;;2.53;;
17201;SDS011;8717;53.588;10.176;2023-10-08T00:26:58;8.03;;;2.43;;
17201;SDS011;8717;53.588;10.176;2023-10-08T00:29:25;11.87;;;2.57;;
17201;SDS011;8717;53.588;10.176;2023-10-08T00:31:53;10.10;;;2.60;;
17201;SDS011;8717;53.588;10.176;2023-10-08T00:34:22;7.20;;;2.90;;
17201;SDS011;8717;53.588;10.176;2023-10-08T00:36:50;9.00;;;2.83;;
17201;SDS011;8717;53.588;10.176;2023-10-08T00:39:17;10.57;;;2.90;;
17201;SDS011;8717;53.588;10.176;2023-10-08T00:41:50;8.93;;;2.67;;
17201;SDS011;8717;53.588;10.176;2023-10-08T00:44:23;8.30;;;2.93;;
17201;SDS011;8717;53.588;10.176;2023-10-08T00:46:55;12.03;;;3.33;;
17201;SDS011;8717;53.588;10.176;2023-10-08T00:49:26;12.10;;;3.20;;
17201;SDS011;8717;53.588;10.176;2023-10-08T00:52:13;10.53;;;3.10;;
17201;SDS011;8717;53.588;10.176;2023-10-08T00:55:03;9.70;;;3.03;;
17201;SDS011;8717;53.588;10.176;2023-10-08T00:57:35;6.33;;;3.23;;
17201;SDS011;8717;53.588;10.176;2023-10-08T01:00:07;11.43;;;3.10;;
17201;SDS011;8717;53.588;10.176;2023-10-08T01:02:42;10.57;;;3.87;;
17201;SDS011;8717;53.588;10.176;2023-10-08T01:05:11;10.73;;;3.67;;
17201;SDS011;8717;53.588;10.176;2023-10-08T01:07:40;9.63;;;3.40;;
17201;SDS011;8717;53.588;10.176;2023-10-08T01:10:11;12.87;;;3.83;;
17201;SDS011;8717;53.588;10.176;2023-10-08T01:12:45;11.30;;;4.13;;
17201;SDS011;8717;53.588;10.176;2023-10-08T01:15:28;7.80;;;3.27;;
17201;SDS011;8717;53.588;10.176;2023-10-08T01:18:01;7.97;;;3.57;;
17201;SDS011;8717;53.588;10.176;2023-10-08T01:20:30;10.80;;;3.30;;
17201;SDS011;8717;53.588;10.176;2023-10-08T01:23:02;9.27;;;3.03;;
17201;SDS011;8717;53.588;10.176;2023-10-08T01:25:35;10.67;;;3.60;;
17201;SDS011;8717;53.588;10.176;2023-10-08T01:28:04;8.93;;;3.13;;
17201;SDS011;8717;53.588;10.176;2023-10-08T01:30:40;12.30;;;3.03;;
17201;SDS011;8717;53.588;10.176;2023-10-08T01:33:08;8.37;;;3.20;;
17201;SDS011;8717;53.588;10.176;2023-10-08T01:35:39;12.87;;;3.50;;
17201;SDS011;8717;53.588;10.176;2023-10-08T01:38:07;11.60;;;3.60;;
17201;SDS011;8717;53.588;10.176;2023-10-08T01:40:39;10.03;;;3.53;;
17201;SDS011;8717;53.588;10.176;2023-10-08T01:43:06;9.33;;;3.40;;
17201;SDS011;8717;53.588;10.176;2023-10-08T01:45:37;12.83;;;3.40;;
17201;SDS011;8717;53.588;10.176;2023-10-08T01:48:08;12.23;;;3.53;;
17201;SDS011;8717;53.588;10.176;2023-10-08T01:50:36;9.47;;;3.33;;
17201;SDS011;8717;53.588;10.176;2023-10-08T01:53:03;12.37;;;2.93;;
17201;SDS011;8717;53.588;10.176;2023-10-08T01:55:35;10.80;;;2.80;;
17201;SDS011;8717;53.588;10.176;2023-10-08T01:58:14;11.30;;;3.50;;
17201;SDS011;8717;53.588;10.176;2023-10-08T02:00:43;10.43;;;3.10;;
17201;SDS011;8717;53.588;10.176;2023-10-08T02:03:12;8.83;;;3.27;;
17201;SDS011;8717;53.588;10.176;2023-10-08T02:05:41;9.93;;;3.00;;
17201;SDS011;8717;53.588;10.176;2023-10-08T02:08:09;12.67;;;3.00;;
17201;SDS011;8717;53.588;10.176;2023-10-08T02:10:40;10.03;;;3.10;;
17201;SDS011;8717;53.588;10.176;2023-10-08T02:13:08;11.77;;;3.37;;
17201;SDS011;8717;53.588;10.176;2023-10-08T02:15:35;12.03;;;3.10;;
17201;SDS011;8717;53.588;10.176;2023-10-08T02:18:04;10.50;;;3.13;;
17201;SDS011;8717;53.588;10.176;2023-10-08T02:20:32;13.57;;;3.50;;
17201;SDS011;8717;53.588;10.176;2023-10-08T02:22:59;6.93;;;2.90;;
17201;SDS011;8717;53.588;10.176;2023-10-08T02:25:26;11.57;;;3.20;;
17201;SDS011;8717;53.588;10.176;2023-10-08T02:27:54;8.37;;;2.73;;
17201;SDS011;8717;53.588;10.176;2023-10-08T02:30:20;9.23;;;2.37;;
17201;SDS011;8717;53.588;10.176;2023-10-08T02:32:47;8.03;;;2.77;;
17201;SDS011;8717;53.588;10.176;2023-10-08T02:35:14;8.80;;;2.83;;
17201;SDS011;8717;53.588;10.176;2023-10-08T02:37:41;8.23;;;2.67;;
17201;SDS011;8717;53.588;10.176;2023-10-08T02:40:11;10.10;;;2.37;;
17201;SDS011;8717;53.588;10.176;2023-10-08T02:42:44;8.63;;;2.80;;
17201;SDS011;8717;53.588;10.176;2023-10-08T02:45:14;6.00;;;2.17;;
17201;SDS011;8717;53.588;10.176;2023-10-08T02:47:41;6.40;;;2.20;;
17201;SDS011;8717;53.588;10.176;2023-10-08T02:50:10;5.93;;;2.30;;
17201;SDS011;8717;53.588;10.176;2023-10-08T02:52:41;7.33;;;2.10;;
17201;SDS011;8717;53.588;10.176;2023-10-08T02:55:09;9.50;;;2.70;;
17201;SDS011;8717;53.588;10.176;2023-10-08T02:57:48;8.07;;;2.20;;
17201;SDS011;8717;53.588;10.176;2023-10-08T03:00:18;6.27;;;2.30;;
17201;SDS011;8717;53.588;10.176;2023-10-08T03:02:45;5.87;;;1.97;;
17201;SDS011;8717;53.588;10.176;2023-10-08T03:05:12;9.23;;;2.30;;
17201;SDS011;8717;53.588;10.176;2023-10-08T03:07:42;8.50;;;1.83;;
17201;SDS011;8717;53.588;10.176;2023-10-08T03:10:09;5.97;;;2.00;;
17201;SDS011;8717;53.588;10.176;2023-10-08T03:12:43;6.17;;;2.13;;
17201;SDS011;8717;53.588;10.176;2023-10-08T03:15:12;7.00;;;2.13;;
17201;SDS011;8717;53.588;10.176;2023-10-08T03:17:55;8.63;;;1.90;;
17201;SDS011;8717;53.588;10.176;2023-10-08T03:20:24;5.87;;;1.97;;
17201;SDS011;8717;53.588;10.176;2023-10-08T03:22:54;7.07;;;1.60;;
17201;SDS011;8717;53.588;10.176;2023-10-08T03:25:23;5.60;;;2.10;;
17201;SDS011;8717;53.588;10.176;2023-10-08T03:27:51;8.17;;;2.20;;
17201;SDS011;8717;53.588;10.176;2023-10-08T03:30:19;7.77;;;2.10;;
17201;SDS011;8717;53.588;10.176;2023-10-08T03:32:47;9.77;;;2.17;;
17201;SDS011;8717;53.588;10.176;2023-10-08T03:35:21;6.43;;;1.90;;
17201;SDS011;8717;53.588;10.176;2023-10-08T03:37:54;7.10;;;2.00;;
17201;SDS011;8717;53.588;10.176;2023-10-08T03:40:40;6.20;;;1.87;;
17201;SDS011;8717;53.588;10.176;2023-10-08T03:43:08;5.73;;;1.73;;
17201;SDS011;8717;53.588;10.176;2023-10-08T03:45:45;5.00;;;1.57;;
17201;SDS011;8717;53.588;10.176;2023-10-08T03:48:16;5.73;;;1.63;;
17201;SDS011;8717;53.588;10.176;2023-10-08T03:50:49;6.10;;;1.83;;
17201;SDS011;8717;53.588;10.176;2023-10-08T03:53:22;6.40;;;1.97;;
17201;SDS011;8717;53.588;10.176;2023-10-08T03:55:49;6.13;;;1.80;;
17201;SDS011;8717;53.588;10.176;2023-10-08T03:58:20;5.87;;;2.10;;
17201;SDS011;8717;53.588;10.176;2023-10-08T04:00:54;4.83;;;1.70;;
17201;SDS011;8717;53.588;10.176;2023-10-08T04:03:33;7.70;;;1.90;;
17201;SDS011;8717;53.588;10.176;2023-10-08T04:06:24;5.47;;;1.70;;
17201;SDS011;8717;53.588;10.176;2023-10-08T04:08:56;4.73;;;1.50;;
17201;SDS011;8717;53.588;10.176;2023-10-08T04:11:37;7.23;;;1.73;;
17201;SDS011;8717;53.588;10.176;2023-10-08T04:14:17;5.10;;;1.73;;
17201;SDS011;8717;53.588;10.176;2023-10-08T04:16:44;4.77;;;1.47;;
17201;SDS011;8717;53.588;10.176;2023-10-08T04:19:12;6.57;;;1.73;;
17201;SDS011;8717;53.588;10.176;2023-10-08T04:21:44;6.20;;;1.80;;
17201;SDS011;8717;53.588;10.176;2023-10-08T04:24:20;5.77;;;1.80;;
17201;SDS011;8717;53.588;10.176;2023-10-08T04:26:53;7.50;;;1.80;;
17201;SDS011;8717;53.588;10.176;2023-10-08T04:29:22;6.27;;;1.53;;
17201;SDS011;8717;53.588;10.176;2023-10-08T04:31:51;5.63;;;1.47;;
17201;SDS011;8717;53.588;10.176;2023-10-08T04:34:27;5.87;;;1.70;;
17201;SDS011;8717;53.588;10.176;2023-10-08T04:36:56;6.43;;;1.80;;
17201;SDS011;8717;53.588;10.176;2023-10-08T04:39:26;5.83;;;1.87;;
17201;SDS011;8717;53.588;10.176;2023-10-08T04:41:57;4.97;;;1.57;;
17201;SDS011;8717;53.588;10.176;2023-10-08T04:44:26;4.80;;;1.33;;
17201;SDS011;8717;53.588;10.176;2023-10-08T04:46:57;8.40;;;1.60;;
17201;SDS011;8717;53.588;10.176;2023-10-08T04:49:30;5.10;;;1.40;;
17201;SDS011;8717;53.588;10.176;2023-10-08T04:52:00;4.90;;;1.90;;
17201;SDS011;8717;53.588;10.176;2023-10-08T04:54:34;3.93;;;1.80;;
17201;SDS011;8717;53.588;10.176;2023-10-08T04:57:05;6.37;;;2.03;;
17201;SDS011;8717;53.588;10.176;2023-10-08T04:59:40;6.97;;;1.90;;
17201;SDS011;8717;53.588;10.176;2023-10-08T05:02:08;8.80;;;1.80;;
17201;SDS011;8717;53.588;10.176;2023-10-08T05:04:46;5.10;;;1.63;;
17201;SDS011;8717;53.588;10.176;2023-10-08T05:07:36;6.17;;;1.67;;
17201;SDS011;8717;53.588;10.176;2023-10-08T05:10:21;7.03;;;1.73;;
17201;SDS011;8717;53.588;10.176;2023-10-08T05:13:05;6.83;;;1.60;;
17201;SDS011;8717;53.588;10.176;2023-10-08T05:15:41;5.77;;;1.60;;
17201;SDS011;8717;53.588;10.176;2023-10-08T05:18:26;4.37;;;1.33;;
17201;SDS011;8717;53.588;10.176;2023-10-08T05:21:13;5.63;;;1.63;;
17201;SDS011;8717;53.588;10.176;2023-10-08T05:23:52;4.33;;;1.60;;
17201;SDS011;8717;53.588;10.176;2023-10-08T05:26:38;5.23;;;1.50;;
17201;SDS011;8717;53.588;10.176;2023-10-08T05:29:10;8.20;;;2.10;;
17201;SDS011;8717;53.588;10.176;2023-10-08T05:32:03;7.37;;;1.40;;
17201;SDS011;8717;53.588;10.176;2023-10-08T05:34:47;2.63;;;1.20;;
17201;SDS011;8717;53.588;10.176;2023-10-08T05:37:37;3.93;;;1.17;;
17201;SDS011;8717;53.588;10.176;2023-10-08T05:40:09;5.77;;;1.60;;
17201;SDS011;8717;53.588;10.176;2023-10-08T05:43:02;4.17;;;1.43;;
17201;SDS011;8717;53.588;10.176;2023-10-08T05:45:47;3.60;;;1.33;;
17201;SDS011;8717;53.588;10.176;2023-10-08T05:48:38;4.40;;;2.27;;
17201;SDS011;8717;53.588;10.176;2023-10-08T05:51:16;4.97;;;1.57;;
17201;SDS011;8717;53.588;10.176;2023-10-08T05:53:59;4.07;;;1.47;;
17201;SDS011;8717;53.588;10.176;2023-10-08T05:56:37;5.07;;;1.67;;
17201;SDS011;8717;53.588;10.176;2023-10-08T05:59:28;5.20;;;1.77;;
17201;SDS011;8717;53.588;10.176;2023-10-08T06:02:06;8.10;;;1.70;;
17201;SDS011;8717;53.588;10.176;2023-10-08T06:04:52;6.23;;;1.50;;
17201;SDS011;8717;53.588;10.176;2023-10-08T06:07:35;3.30;;;1.60;;
17201;SDS011;8717;53.588;10.176;2023-10-08T06:10:13;5.37;;;1.50;;
17201;SDS011;8717;53.588;10.176;2023-10-08T06:13:05;5.87;;;1.70;;
17201;SDS011;8717;53.588;10.176;2023-10-08T06:15:35;4.43;;;1.33;;
17201;SDS011;8717;53.588;10.176;2023-10-08T06:18:09;5.40;;;1.93;;
17201;SDS011;8717;53.588;10.176;2023-10-08T06:20:36;5.30;;;1.50;;
17201;SDS011;8717;53.588;10.176;2023-10-08T06:23:05;8.20;;;1.90;;
17201;SDS011;8717;53.588;10.176;2023-10-08T06:25:32;6.17;;;1.70;;
17201;SDS011;8717;53.588;10.176;2023-10-08T06:28:11;4.63;;;1.80;;
17201;SDS011;8717;53.588;10.176;2023-10-08T06:30:39;8.00;;;1.90;;
17201;SDS011;8717;53.588;10.176;2023-10-08T06:33:09;4.30;;;1.87;;
17201;SDS011;8717;53.588;10.176;2023-10-08T06:35:36;8.03;;;1.93;;
17201;SDS011;8717;53.588;10.176;2023-10-08T06:38:03;8.30;;;1.43;;
17201;SDS011;8717;53.588;10.176;2023-10-08T06:40:34;6.43;;;1.57;;
17201;SDS011;8717;53.588;10.176;2023-10-08T06:43:06;6.70;;;1.77;;
17201;SDS011;8717;53.588;10.176;2023-10-08T06:45:48;5.67;;;1.60;;
17201;SDS011;8717;53.588;10.176;2023-10-08T06:48:17;5.93;;;1.80;;
17201;SDS011;8717;53.588;10.176;2023-10-08T06:50:45;5.00;;;1.60;;
17201;SDS011;8717;53.588;10.176;2023-10-08T06:53:13;4.27;;;1.70;;
17201;SDS011;8717;53.588;10.176;2023-10-08T06:55:40;6.70;;;2.00;;
17201;SDS011;8717;53.588;10.176;2023-10-08T06:58:08;5.30;;;1.83;;
17201;SDS011;8717;53.588;10.176;2023-10-08T07:00:37;5.70;;;1.50;;
17201;SDS011;8717;53.588;10.176;2023-10-08T07:03:09;5.70;;;1.60;;
17201;SDS011;8717;53.588;10.176;2023-10-08T07:05:36;6.47;;;1.50;;
17201;SDS011;8717;53.588;10.176;2023-10-08T07:08:06;6.00;;;1.40;;
17201;SDS011;8717;53.588;10.176;2023-10-08T07:10:34;5.50;;;1.80;;
17201;SDS011;8717;53.588;10.176;2023-10-08T07:13:01;6.80;;;1.70;;
17201;SDS011;8717;53.588;10.176;2023-10-08T07:15:29;6.33;;;1.80;;
17201;SDS011;8717;53.588;10.176;2023-10-08T07:17:57;5.10;;;1.40;;
17201;SDS011;8717;53.588;10.176;2023-10-08T07:20:38;9.27;;;2.97;;
17201;SDS011;8717;53.588;10.176;2023-10-08T07:23:07;5.03;;;1.70;;
17201;SDS011;8717;53.588;10.176;2023-10-08T07:25:46;7.77;;;1.50;;
17201;SDS011;8717;53.588;10.176;2023-10-08T07:28:22;5.83;;;1.80;;
17201;SDS011;8717;53.588;10.176;2023-10-08T07:30:50;5.70;;;1.37;;
17201;SDS011;8717;53.588;10.176;2023-10-08T07:33:17;3.20;;;1.40;;
17201;SDS011;8717;53.588;10.176;2023-10-08T07:35:46;4.47;;;1.90;;
17201;SDS011;8717;53.588;10.176;2023-10-08T07:38:20;4.70;;;1.60;;
17201;SDS011;8717;53.588;10.176;2023-10-08T07:40:47;5.90;;;1.73;;
17201;SDS011;8717;53.588;10.176;2023-10-08T07:43:15;5.77;;;1.57;;
17201;SDS011;8717;53.588;10.176;2023-10-08T07:45:45;3.63;;;1.37;;
17201;SDS011;8717;53.588;10.176;2023-10-08T07:48:12;4.07;;;1.50;;
17201;SDS011;8717;53.588;10.176;2023-10-08T07:50:40;5.80;;;1.80;;
17201;SDS011;8717;53.588;10.176;2023-10-08T07:53:12;7.43;;;1.90;;
17201;SDS011;8717;53.588;10.176;2023-10-08T07:55:44;2.50;;;1.20;;
17201;SDS011;8717;53.588;10.176;2023-10-08T07:58:13;6.50;;;1.53;;
17201;SDS011;8717;53.588;10.176;2023-10-08T08:00:40;5.10;;;1.10;;
17201;SDS011;8717;53.588;10.176;2023-10-08T08:03:16;4.20;;;1.20;;
17201;SDS011;8717;53.588;10.176;2023-10-08T08:05:45;2.63;;;1.20;;
17201;SDS011;8717;53.588;10.176;2023-10-08T08:08:13;3.53;;;1.27;;
17201;SDS011;8717;53.588;10.176;2023-10-08T08:10:43;3.73;;;1.77;;
17201;SDS011;8717;53.588;10.176;2023-10-08T08:13:10;3.53;;;1.27;;
17201;SDS011;8717;53.588;10.176;2023-10-08T08:15:38;3.33;;;1.10;;
17201;SDS011;8717;53.588;10.176;2023-10-08T08:18:10;4.07;;;1.20;;
17201;SDS011;8717;53.588;10.176;2023-10-08T08:20:48;2.57;;;1.30;;
17201;SDS011;8717;53.588;10.176;2023-10-08T08:23:15;3.07;;;1.17;;
17201;SDS011;8717;53.588;10.176;2023-10-08T08:25:43;7.53;;;1.63;;
17201;SDS011;8717;53.588;10.176;2023-10-08T08:28:30;7.13;;;1.33;;
17201;SDS011;8717;53.588;10.176;2023-10-08T08:31:01;3.10;;;1.27;;
17201;SDS011;8717;53.588;10.176;2023-10-08T08:33:29;5.93;;;1.50;;
17201;SDS011;8717;53.588;10.176;2023-10-08T08:36:18;3.13;;;1.00;;
17201;SDS011;8717;53.588;10.176;2023-10-08T08:38:45;4.13;;;1.50;;
17201;SDS011;8717;53.588;10.176;2023-10-08T08:41:12;4.63;;;1.30;;
17201;SDS011;8717;53.588;10.176;2023-10-08T08:43:43;5.27;;;1.23;;
17201;SDS011;8717;53.588;10.176;2023-10-08T08:46:13;2.60;;;1.13;;
17201;SDS011;8717;53.588;10.176;2023-10-08T08:48:41;2.50;;;1.30;;
17201;SDS011;8717;53.588;10.176;2023-10-08T08:51:09;2.10;;;1.10;;
17201;SDS011;8717;53.588;10.176;2023-10-08T08:53:38;2.83;;;0.93;;
17201;SDS011;8717;53.588;10.176;2023-10-08T08:56:06;3.10;;;1.40;;
17201;SDS011;8717;53.588;10.176;2023-10-08T08:58:35;2.40;;;1.00;;
17201;SDS011;8717;53.588;10.176;2023-10-08T09:01:03;2.03;;;0.87;;
17201;SDS011;8717;53.588;10.176;2023-10-08T09:03:33;4.17;;;1.13;;
17201;SDS011;8717;53.588;10.176;2023-10-08T09:06:00;3.00;;;1.10;;
17201;SDS011;8717;53.588;10.176;2023-10-08T09:08:32;2.57;;;1.10;;
17201;SDS011;8717;53.588;10.176;2023-10-08T09:11:01;4.23;;;1.20;;
17201;SDS011;8717;53.588;10.176;2023-10-08T09:13:33;2.77;;;1.10;;
17201;SDS011;8717;53.588;10.176;2023-10-08T09:16:07;3.20;;;1.10;;
17201;SDS011;8717;53.588;10.176;2023-10-08T09:18:34;1.63;;;1.10;;
17201;SDS011;8717;53.588;10.176;2023-10-08T09:21:08;3.20;;;1.50;;
17201;SDS011;8717;53.588;10.176;2023-10-08T09:23:38;2.77;;;1.00;;
17201;SDS011;8717;53.588;10.176;2023-10-08T09:26:09;2.23;;;1.03;;
17201;SDS011;8717;53.588;10.176;2023-10-08T09:28:39;2.60;;;1.07;;
17201;SDS011;8717;53.588;10.176;2023-10-08T09:31:08;4.13;;;1.10;;
17201;SDS011;8717;53.588;10.176;2023-10-08T09:33:36;4.07;;;1.13;;
17201;SDS011;8717;53.588;10.176;2023-10-08T09:36:03;1.33;;;0.77;;
17201;SDS011;8717;53.588;10.176;2023-10-08T09:38:32;1.67;;;0.83;;
17201;SDS011;8717;53.588;10.176;2023-10-08T09:40:59;2.07;;;0.70;;
17201;SDS011;8717;53.588;10.176;2023-10-08T09:43:29;2.80;;;1.10;;
17201;SDS011;8717;53.588;10.176;2023-10-08T09:46:00;3.73;;;0.87;;
17201;SDS011;8717;53.588;10.176;2023-10-08T09:48:33;4.23;;;1.00;;
17201;SDS011;8717;53.588;10.176;2023-10-08T09:51:03;2.23;;;1.40;;
17201;SDS011;8717;53.588;10.176;2023-10-08T09:53:34;4.23;;;1.47;;
17201;SDS011;8717;53.588;10.176;2023-10-08T09:56:12;3.20;;;1.27;;
17201;SDS011;8717;53.588;10.176;2023-10-08T09:58:42;3.47;;;1.03;;
17201;SDS011;8717;53.588;10.176;2023-10-08T10:01:09;2.13;;;0.97;;
17201;SDS011;8717;53.588;10.176;2023-10-08T10:03:37;2.43;;;0.90;;
17201;SDS011;8717;53.588;10.176;2023-10-08T10:06:04;1.20;;;0.87;;
17201;SDS011;8717;53.588;10.176;2023-10-08T10:08:39;3.57;;;1.53;;
17201;SDS011;8717;53.588;10.176;2023-10-08T10:11:08;2.63;;;1.03;;
17201;SDS011;8717;53.588;10.176;2023-10-08T10:13:38;2.70;;;1.20;;
17201;SDS011;8717;53.588;10.176;2023-10-08T10:16:08;2.53;;;1.27;;
17201;SDS011;8717;53.588;10.176;2023-10-08T10:18:36;2.63;;;1.03;;
17201;SDS011;8717;53.588;10.176;2023-10-08T10:23:52;2.10;;;0.90;;
17201;SDS011;8717;53.588;10.176;2023-10-08T10:26:23;2.13;;;1.07;;
17201;SDS011;8717;53.588;10.176;2023-10-08T10:31:46;1.43;;;0.90;;
17201;SDS011;8717;53.588;10.176;2023-10-08T10:34:15;1.83;;;0.90;;
17201;SDS011;8717;53.588;10.176;2023-10-08T10:36:43;3.37;;;1.13;;
17201;SDS011;8717;53.588;10.176;2023-10-08T10:39:14;2.87;;;0.97;;
17201;SDS011;8717;53.588;10.176;2023-10-08T10:41:43;3.27;;;1.13;;
17201;SDS011;8717;53.588;10.176;2023-10-08T10:44:11;2.47;;;0.80;;
17201;SDS011;8717;53.588;10.176;2023-10-08T10:46:39;1.63;;;0.80;;
17201;SDS011;8717;53.588;10.176;2023-10-08T10:49:09;2.50;;;1.07;;
17201;SDS011;8717;53.588;10.176;2023-10-08T10:51:47;3.17;;;0.90;;
17201;SDS011;8717;53.588;10.176;2023-10-08T10:54:17;1.57;;;0.90;;
17201;SDS011;8717;53.588;10.176;2023-10-08T10:56:48;3.37;;;1.10;;
17201;SDS011;8717;53.588;10.176;2023-10-08T10:59:28;1.47;;;0.70;;
17201;SDS011;8717;53.588;10.176;2023-10-08T11:02:02;3.27;;;0.87;;
17201;SDS011;8717;53.588;10.176;2023-10-08T11:04:35;2.60;;;1.07;;
17201;SDS011;8717;53.588;10.176;2023-10-08T11:07:13;2.80;;;0.90;;
17201;SDS011;8717;53.588;10.176;2023-10-08T11:09:41;2.47;;;1.00;;
17201;SDS011;8717;53.588;10.176;2023-10-08T11:12:09;2.83;;;1.10;;
17201;SDS011;8717;53.588;10.176;2023-10-08T11:14:43;3.90;;;1.13;;
17201;SDS011;8717;53.588;10.176;2023-10-08T11:17:13;1.30;;;0.90;;
17201;SDS011;8717;53.588;10.176;2023-10-08T11:19:43;3.00;;;1.00;;
17201;SDS011;8717;53.588;10.176;2023-10-08T11:22:11;1.47;;;0.80;;
17201;SDS011;8717;53.588;10.176;2023-10-08T11:24:42;1.20;;;0.67;;
17201;SDS011;8717;53.588;10.176;2023-10-08T11:27:12;1.67;;;0.90;;
17201;SDS011;8717;53.588;10.176;2023-10-08T11:29:43;2.20;;;0.90;;
17201;SDS011;8717;53.588;10.176;2023-10-08T11:32:11;5.00;;;1.17;;
17201;SDS011;8717;53.588;10.176;2023-10-08T11:34:40;1.87;;;0.77;;
17201;SDS011;8717;53.588;10.176;2023-10-08T11:37:10;2.20;;;0.73;;
17201;SDS011;8717;53.588;10.176;2023-10-08T11:39:46;2.27;;;1.10;;
17201;SDS011;8717;53.588;10.176;2023-10-08T11:42:15;1.38;;;0.75;;
17201;SDS011;8717;53.588;10.176;2023-10-08T11:45:00;1.43;;;0.70;;
17201;SDS011;8717;53.588;10.176;2023-10-08T11:47:42;3.80;;;1.40;;
17201;SDS011;8717;53.588;10.176;2023-10-08T11:50:11;1.30;;;0.90;;
17201;SDS011;8717;53.588;10.176;2023-10-08T11:52:45;2.57;;;0.80;;
17201;SDS011;8717;53.588;10.176;2023-10-08T11:55:12;1.37;;;0.80;;
17201;SDS011;8717;53.588;10.176;2023-10-08T11:57:44;2.13;;;0.80;;
17201;SDS011;8717;53.588;10.176;2023-10-08T12:00:14;1.77;;;1.10;;
17201;SDS011;8717;53.588;10.176;2023-10-08T12:02:45;1.83;;;0.80;;
17201;SDS011;8717;53.588;10.176;2023-10-08T12:05:14;2.13;;;0.80;;
17201;SDS011;8717;53.588;10.176;2023-10-08T12:07:45;2.33;;;0.80;;
17201;SDS011;8717;53.588;10.176;2023-10-08T12:10:16;2.83;;;0.87;;
17201;SDS011;8717;53.588;10.176;2023-10-08T12:12:47;3.37;;;0.80;;
17201;SDS011;8717;53.588;10.176;2023-10-08T12:15:14;1.63;;;0.70;;
17201;SDS011;8717;53.588;10.176;2023-10-08T12:17:45;2.50;;;0.77;;
17201;SDS011;8717;53.588;10.176;2023-10-08T12:20:43;2.07;;;0.67;;
17201;SDS011;8717;53.588;10.176;2023-10-08T12:23:11;2.30;;;0.80;;
17201;SDS011;8717;53.588;10.176;2023-10-08T12:25:48;2.40;;;0.80;;
17201;SDS011;8717;53.588;10.176;2023-10-08T12:28:16;1.83;;;0.90;;
17201;SDS011;8717;53.588;10.176;2023-10-08T12:30:44;2.53;;;0.87;;
17201;SDS011;8717;53.588;10.176;2023-10-08T12:33:11;1.73;;;0.80;;
17201;SDS011;8717;53.588;10.176;2023-10-08T12:35:41;1.93;;;1.00;;
17201;SDS011;8717;53.588;10.176;2023-10-08T12:38:09;1.57;;;0.53;;
17201;SDS011;8717;53.588;10.176;2023-10-08T12:40:36;1.43;;;0.90;;
17201;SDS011;8717;53.588;10.176;2023-10-08T12:43:12;1.70;;;0.80;;
17201;SDS011;8717;53.588;10.176;2023-10-08T12:45:41;1.87;;;0.63;;
17201;SDS011;8717;53.588;10.176;2023-10-08T12:48:10;1.47;;;0.93;;
17201;SDS011;8717;53.588;10.176;2023-10-08T12:50:39;1.63;;;0.77;;
17201;SDS011;8717;53.588;10.176;2023-10-08T12:53:09;1.80;;;0.93;;
17201;SDS011;8717;53.588;10.176;2023-10-08T12:55:37;1.57;;;0.60;;
17201;SDS011;8717;53.588;10.176;2023-10-08T12:58:05;1.73;;;1.00;;
17201;SDS011;8717;53.588;10.176;2023-10-08T13:00:37;1.23;;;0.80;;
17201;SDS011;8717;53.588;10.176;2023-10-08T13:03:08;0.73;;;0.60;;
17201;SDS011;8717;53.588;10.176;2023-10-08T13:05:40;1.30;;;0.80;;
17201;SDS011;8717;53.588;10.176;2023-10-08T13:08:19;1.33;;;0.70;;
17201;SDS011;8717;53.588;10.176;2023-10-08T13:10:46;1.47;;;0.73;;
17201;SDS011;8717;53.588;10.176;2023-10-08T13:13:13;2.27;;;0.90;;
17201;SDS011;8717;53.588;10.176;2023-10-08T13:15:39;1.33;;;0.87;;
17201;SDS011;8717;53.588;10.176;2023-10-08T13:18:10;3.20;;;1.00;;
17201;SDS011;8717;53.588;10.176;2023-10-08T13:20:36;1.10;;;0.70;;
17201;SDS011;8717;53.588;10.176;2023-10-08T13:23:05;1.60;;;0.80;;
17201;SDS011;8717;53.588;10.176;2023-10-08T13:25:34;2.80;;;0.93;;
17201;SDS011;8717;53.588;10.176;2023-10-08T13:28:04;1.57;;;0.80;;
17201;SDS011;8717;53.588;10.176;2023-10-08T13:30:36;2.23;;;0.87;;
17201;SDS011;8717;53.588;10.176;2023-10-08T13:33:04;2.37;;;1.00;;
17201;SDS011;8717;53.588;10.176;2023-10-08T13:35:35;1.70;;;1.00;;
17201;SDS011;8717;53.588;10.176;2023-10-08T13:38:01;2.83;;;1.10;;
17201;SDS011;8717;53.588;10.176;2023-10-08T13:40:35;1.20;;;0.70;;
17201;SDS011;8717;53.588;10.176;2023-10-08T13:43:08;3.17;;;1.73;;
17201;SDS011;8717;53.588;10.176;2023-10-08T13:45:36;1.20;;;0.80;;
17201;SDS011;8717;53.588;10.176;2023-10-08T13:48:05;2.50;;;1.00;;
17201;SDS011;8717;53.588;10.176;2023-10-08T13:50:35;2.00;;;1.00;;
17201;SDS011;8717;53.588;10.176;2023-10-08T13:53:02;1.90;;;0.70;;
17201;SDS011;8717;53.588;10.176;2023-10-08T13:55:30;4.20;;;0.83;;
17201;SDS011;8717;53.588;10.176;2023-10-08T13:57:59;1.80;;;0.90;;
17201;SDS011;8717;53.588;10.176;2023-10-08T14:00:29;2.07;;;0.77;;
17201;SDS011;8717;53.588;10.176;2023-10-08T14:03:01;1.10;;;0.80;;
17201;SDS011;8717;53.588;10.176;2023-10-08T14:05:33;2.13;;;0.67;;
17201;SDS011;8717;53.588;10.176;2023-10-08T14:07:59;2.87;;;0.83;;
17201;SDS011;8717;53.588;10.176;2023-10-08T14:10:27;1.30;;;0.63;;
17201;SDS011;8717;53.588;10.176;2023-10-08T14:12:54;2.07;;;0.83;;
17201;SDS011;8717;53.588;10.176;2023-10-08T14:15:22;1.67;;;0.73;;
17201;SDS011;8717;53.588;10.176;2023-10-08T14:17:51;3.03;;;0.73;;
17201;SDS011;8717;53.588;10.176;2023-10-08T14:20:20;0.90;;;0.57;;
17201;SDS011;8717;53.588;10.176;2023-10-08T14:22:47;1.43;;;0.73;;
17201;SDS011;8717;53.588;10.176;2023-10-08T14:25:22;2.93;;;1.00;;
17201;SDS011;8717;53.588;10.176;2023-10-08T14:27:58;2.43;;;1.10;;
17201;SDS011;8717;53.588;10.176;2023-10-08T14:30:31;2.00;;;0.87;;
17201;SDS011;8717;53.588;10.176;2023-10-08T14:33:00;2.03;;;0.90;;
17201;SDS011;8717;53.588;10.176;2023-10-08T14:35:28;1.37;;;0.70;;
17201;SDS011;8717;53.588;10.176;2023-10-08T14:38:13;1.60;;;1.10;;
17201;SDS011;8717;53.588;10.176;2023-10-08T14:40:58;2.50;;;1.00;;
17201;SDS011;8717;53.588;10.176;2023-10-08T14:43:56;1.73;;;0.97;;
17201;SDS011;8717;53.588;10.176;2023-10-08T14:46:24;4.87;;;1.07;;
17201;SDS011;8717;53.588;10.176;2023-10-08T14:48:56;1.70;;;0.90;;
17201;SDS011;8717;53.588;10.176;2023-10-08T14:51:23;2.57;;;1.00;;
17201;SDS011;8717;53.588;10.176;2023-10-08T14:53:51;1.47;;;0.97;;
17201;SDS011;8717;53.588;10.176;2023-10-08T14:56:18;2.00;;;0.93;;
17201;SDS011;8717;53.588;10.176;2023-10-08T14:58:45;2.73;;;1.50;;
17201;SDS011;8717;53.588;10.176;2023-10-08T15:01:13;2.70;;;1.30;;
17201;SDS011;8717;53.588;10.176;2023-10-08T15:03:41;2.47;;;1.50;;
17201;SDS011;8717;53.588;10.176;2023-10-08T15:06:07;1.90;;;1.20;;
17201;SDS011;8717;53.588;10.176;2023-10-08T15:08:36;3.10;;;1.10;;
17201;SDS011;8717;53.588;10.176;2023-10-08T15:11:02;1.40;;;0.80;;
17201;SDS011;8717;53.588;10.176;2023-10-08T15:13:31;2.40;;;1.10;;
17201;SDS011;8717;53.588;10.176;2023-10-08T15:16:03;10.77;;;6.70;;
17201;SDS011;8717;53.588;10.176;2023-10-08T15:18:31;5.47;;;3.17;;